sensor_id;sensor_type;location;lat;lon;timestamp;temperature;humidity
610;DHT22;292;48.800;9.216;2024-01-10T00:00:10;0.30;49.30
610;DHT22;292;48.800;9.216;2024-01-10T00:02:37;0.20;49.30
610;DHT22;292;48.800;9.216;2024-01-10T00:05:07;0.20;49.60
610;DHT22;292;48.800;9.216;2024-01-10T00:07:34;0.30;50.00
610;DHT22;292;48.800;9.216;2024-01-10T00:10:02;0.30;50.00
610;DHT22;292;48.800;9.216;2024-01-10T00:12:29;0.30;49.80
610;DHT22;292;48.800;9.216;2024-01-10T00:15:00;0.30;50.00
610;DHT22;292;48.800;9.216;2024-01-10T00:17:27;0.30;50.10
610;DHT22;292;48.800;9.216;2024-01-10T00:19:54;0.30;50.60
610;DHT22;292;48.800;9.216;2024-01-10T00:22:23;0.30;50.90
610;DHT22;292;48.800;9.216;2024-01-10T00:24:50;0.30;51.30
610;DHT22;292;48.800;9.216;2024-01-10T00:27:17;0.40;51.40
610;DHT22;292;48.800;9.216;2024-01-10T00:29:44;0.40;51.70
610;DHT22;292;48.800;9.216;2024-01-10T00:32:11;0.40;51.80
610;DHT22;292;48.800;9.216;2024-01-10T00:34:38;0.40;51.30
610;DHT22;292;48.800;9.216;2024-01-10T00:37:05;0.40;51.40
610;DHT22;292;48.800;9.216;2024-01-10T00:39:34;0.40;51.30
610;DHT22;292;48.800;9.216;2024-01-10T00:42:01;0.40;51.60
610;DHT22;292;48.800;9.216;2024-01-10T00:44:27;0.40;51.70
610;DHT22;292;48.800;9.216;2024-01-10T00:46:55;0.40;51.70
610;DHT22;292;48.800;9.216;2024-01-10T00:49:22;0.40;51.80
610;DHT22;292;48.800;9.216;2024-01-10T00:51:49;0.40;52.20
610;DHT22;292;48.800;9.216;2024-01-10T00:54:17;0.40;52.20
610;DHT22;292;48.800;9.216;2024-01-10T00:56:45;0.50;52.50
610;DHT22;292;48.800;9.216;2024-01-10T00:59:12;0.50;52.90
610;DHT22;292;48.800;9.216;2024-01-10T01:01:39;0.50;52.60
610;DHT22;292;48.800;9.216;2024-01-10T01:04:06;0.50;52.40
610;DHT22;292;48.800;9.216;2024-01-10T01:06:33;0.50;52.50
610;DHT22;292;48.800;9.216;2024-01-10T01:09:00;0.50;53.00
610;DHT22;292;48.800;9.216;2024-01-10T01:11:27;0.50;52.90
610;DHT22;292;48.800;9.216;2024-01-10T01:13:56;0.50;52.40
610;DHT22;292;48.800;9.216;2024-01-10T01:16:23;0.50;52.20
610;DHT22;292;48.800;9.216;2024-01-10T01:18:50;0.50;52.10
610;DHT22;292;48.800;9.216;2024-01-10T01:21:17;0.50;52.20
610;DHT22;292;48.800;9.216;2024-01-10T01:23:44;0.50;52.40
610;DHT22;292;48.800;9.216;2024-01-10T01:26:11;0.50;52.40
610;DHT22;292;48.800;9.216;2024-01-10T01:28:39;0.50;52.90
610;DHT22;292;48.800;9.216;2024-01-10T01:31:08;0.50;53.40
610;DHT22;292;48.800;9.216;2024-01-10T01:33:35;0.50;53.60
610;DHT22;292;48.800;9.216;2024-01-10T01:36:05;0.50;54.00
610;DHT22;292;48.800;9.216;2024-01-10T01:38:32;0.50;54.10
610;DHT22;292;48.800;9.216;2024-01-10T01:40:58;0.50;54.20
610;DHT22;292;48.800;9.216;2024-01-10T01:43:26;0.50;54.20
610;DHT22;292;48.800;9.216;2024-01-10T01:45:54;0.50;54.00
610;DHT22;292;48.800;9.216;2024-01-10T01:48:24;0.50;53.60
610;DHT22;292;48.800;9.216;2024-01-10T01:50:54;0.50;53.60
610;DHT22;292;48.800;9.216;2024-01-10T01:53:22;0.50;53.60
610;DHT22;292;48.800;9.216;2024-01-10T01:55:50;0.50;53.70
610;DHT22;292;48.800;9.216;2024-01-10T01:58:17;0.50;54.00
610;DHT22;292;48.800;9.216;2024-01-10T02:00:44;0.50;54.00
610;DHT22;292;48.800;9.216;2024-01-10T02:03:11;0.50;54.00
610;DHT22;292;48.800;9.216;2024-01-10T02:05:40;0.50;53.60
610;DHT22;292;48.800;9.216;2024-01-10T02:08:08;0.50;53.70
610;DHT22;292;48.800;9.216;2024-01-10T02:10:35;0.50;53.80
610;DHT22;292;48.800;9.216;2024-01-10T02:13:02;0.50;53.80
610;DHT22;292;48.800;9.216;2024-01-10T02:15:29;0.50;53.70
610;DHT22;292;48.800;9.216;2024-01-10T02:17:56;0.50;53.80
610;DHT22;292;48.800;9.216;2024-01-10T02:20:23;0.50;54.00
610;DHT22;292;48.800;9.216;2024-01-10T02:22:52;0.50;53.30
610;DHT22;292;48.800;9.216;2024-01-10T02:25:21;0.50;53.30
610;DHT22;292;48.800;9.216;2024-01-10T02:27:48;0.40;53.30
610;DHT22;292;48.800;9.216;2024-01-10T02:30:15;0.40;52.80
610;DHT22;292;48.800;9.216;2024-01-10T02:32:42;0.40;52.20
610;DHT22;292;48.800;9.216;2024-01-10T02:35:09;0.30;52.10
610;DHT22;292;48.800;9.216;2024-01-10T02:37:37;0.30;51.60
610;DHT22;292;48.800;9.216;2024-01-10T02:40:04;0.20;51.30
610;DHT22;292;48.800;9.216;2024-01-10T02:42:34;0.20;51.30
610;DHT22;292;48.800;9.216;2024-01-10T02:45:01;0.20;51.00
610;DHT22;292;48.800;9.216;2024-01-10T02:47:32;0.20;50.80
610;DHT22;292;48.800;9.216;2024-01-10T02:49:59;0.20;50.90
610;DHT22;292;48.800;9.216;2024-01-10T02:52:28;0.10;51.30
610;DHT22;292;48.800;9.216;2024-01-10T02:54:55;0.10;51.30
610;DHT22;292;48.800;9.216;2024-01-10T02:57:22;0.10;50.80
610;DHT22;292;48.800;9.216;2024-01-10T02:59:51;0.10;50.60
610;DHT22;292;48.800;9.216;2024-01-10T03:02:18;0.10;50.50
610;DHT22;292;48.800;9.216;2024-01-10T03:04:45;0.00;50.40
610;DHT22;292;48.800;9.216;2024-01-10T03:07:12;0.00;50.10
610;DHT22;292;48.800;9.216;2024-01-10T03:09:40;0.00;50.00
610;DHT22;292;48.800;9.216;2024-01-10T03:12:07;-0.10;50.00
610;DHT22;292;48.800;9.216;2024-01-10T03:14:33;-0.10;49.80
610;DHT22;292;48.800;9.216;2024-01-10T03:17:02;-0.20;49.80
610;DHT22;292;48.800;9.216;2024-01-10T03:19:29;-0.20;50.00
610;DHT22;292;48.800;9.216;2024-01-10T03:21:56;-0.30;50.00
610;DHT22;292;48.800;9.216;2024-01-10T03:24:24;-0.30;50.10
610;DHT22;292;48.800;9.216;2024-01-10T03:26:52;-0.30;50.10
610;DHT22;292;48.800;9.216;2024-01-10T03:29:19;-0.30;50.40
610;DHT22;292;48.800;9.216;2024-01-10T03:31:46;-0.30;50.50
610;DHT22;292;48.800;9.216;2024-01-10T03:34:15;-0.30;50.80
610;DHT22;292;48.800;9.216;2024-01-10T03:36:43;-0.30;50.90
610;DHT22;292;48.800;9.216;2024-01-10T03:39:10;-0.30;50.90
610;DHT22;292;48.800;9.216;2024-01-10T03:41:37;-0.30;51.00
610;DHT22;292;48.800;9.216;2024-01-10T03:44:04;-0.30;51.00
610;DHT22;292;48.800;9.216;2024-01-10T03:46:31;-0.30;51.20
610;DHT22;292;48.800;9.216;2024-01-10T03:48:59;-0.20;51.30
610;DHT22;292;48.800;9.216;2024-01-10T03:51:27;-0.20;51.30
610;DHT22;292;48.800;9.216;2024-01-10T03:53:54;-0.20;51.20
610;DHT22;292;48.800;9.216;2024-01-10T03:56:21;-0.20;51.30
610;DHT22;292;48.800;9.216;2024-01-10T03:58:51;-0.20;51.40
610;DHT22;292;48.800;9.216;2024-01-10T04:01:22;-0.20;51.30
610;DHT22;292;48.800;9.216;2024-01-10T04:03:49;-0.20;51.30
610;DHT22;292;48.800;9.216;2024-01-10T04:06:16;-0.20;51.40
610;DHT22;292;48.800;9.216;2024-01-10T04:08:44;-0.20;51.30
610;DHT22;292;48.800;9.216;2024-01-10T04:11:11;-0.20;51.30
610;DHT22;292;48.800;9.216;2024-01-10T04:13:38;-0.20;51.30
610;DHT22;292;48.800;9.216;2024-01-10T04:16:07;-0.20;51.30
610;DHT22;292;48.800;9.216;2024-01-10T04:18:34;-0.20;51.30
610;DHT22;292;48.800;9.216;2024-01-10T04:21:01;-0.20;51.40
610;DHT22;292;48.800;9.216;2024-01-10T04:23:28;-0.10;51.70
610;DHT22;292;48.800;9.216;2024-01-10T04:26:01;-0.10;51.70
610;DHT22;292;48.800;9.216;2024-01-10T04:28:28;-0.10;51.80
610;DHT22;292;48.800;9.216;2024-01-10T04:30:55;-0.10;51.80
610;DHT22;292;48.800;9.216;2024-01-10T04:33:22;-0.10;51.70
610;DHT22;292;48.800;9.216;2024-01-10T04:35:50;-0.10;51.80
610;DHT22;292;48.800;9.216;2024-01-10T04:38:17;-0.10;51.80
610;DHT22;292;48.800;9.216;2024-01-10T04:40:44;-0.10;51.70
610;DHT22;292;48.800;9.216;2024-01-10T04:43:12;0.00;52.00
610;DHT22;292;48.800;9.216;2024-01-10T04:45:40;0.00;52.00
610;DHT22;292;48.800;9.216;2024-01-10T04:48:07;0.00;52.00
610;DHT22;292;48.800;9.216;2024-01-10T04:50:35;0.00;52.00
610;DHT22;292;48.800;9.216;2024-01-10T04:53:02;0.00;52.00
610;DHT22;292;48.800;9.216;2024-01-10T04:55:29;0.00;52.20
610;DHT22;292;48.800;9.216;2024-01-10T04:57:56;0.00;52.20
610;DHT22;292;48.800;9.216;2024-01-10T05:00:24;0.10;52.50
610;DHT22;292;48.800;9.216;2024-01-10T05:02:54;0.10;52.80
610;DHT22;292;48.800;9.216;2024-01-10T05:05:21;0.10;52.90
610;DHT22;292;48.800;9.216;2024-01-10T05:07:49;0.10;52.80
610;DHT22;292;48.800;9.216;2024-01-10T05:10:16;0.10;52.60
610;DHT22;292;48.800;9.216;2024-01-10T05:12:43;0.10;52.50
610;DHT22;292;48.800;9.216;2024-01-10T05:15:10;0.20;52.60
610;DHT22;292;48.800;9.216;2024-01-10T05:17:39;0.20;52.90
610;DHT22;292;48.800;9.216;2024-01-10T05:20:07;0.20;53.00
610;DHT22;292;48.800;9.216;2024-01-10T05:22:35;0.20;52.90
610;DHT22;292;48.800;9.216;2024-01-10T05:25:02;0.20;53.00
610;DHT22;292;48.800;9.216;2024-01-10T05:27:30;0.20;53.00
610;DHT22;292;48.800;9.216;2024-01-10T05:29:57;0.20;53.20
610;DHT22;292;48.800;9.216;2024-01-10T05:32:25;0.20;53.00
610;DHT22;292;48.800;9.216;2024-01-10T05:34:54;0.20;53.20
610;DHT22;292;48.800;9.216;2024-01-10T05:37:21;0.20;53.20
610;DHT22;292;48.800;9.216;2024-01-10T05:39:49;0.20;53.60
610;DHT22;292;48.800;9.216;2024-01-10T05:42:16;0.20;53.70
610;DHT22;292;48.800;9.216;2024-01-10T05:44:44;0.20;53.40
610;DHT22;292;48.800;9.216;2024-01-10T05:47:11;0.20;53.30
610;DHT22;292;48.800;9.216;2024-01-10T05:49:38;0.20;53.40
610;DHT22;292;48.800;9.216;2024-01-10T05:52:07;0.20;53.40
610;DHT22;292;48.800;9.216;2024-01-10T05:54:34;0.20;53.30
610;DHT22;292;48.800;9.216;2024-01-10T05:57:01;0.20;53.00
610;DHT22;292;48.800;9.216;2024-01-10T05:59:28;0.20;53.20
610;DHT22;292;48.800;9.216;2024-01-10T06:01:56;0.20;53.40
610;DHT22;292;48.800;9.216;2024-01-10T06:04:24;0.20;53.40
610;DHT22;292;48.800;9.216;2024-01-10T06:06:51;0.20;53.30
610;DHT22;292;48.800;9.216;2024-01-10T06:09:19;0.20;53.00
610;DHT22;292;48.800;9.216;2024-01-10T06:11:47;0.20;53.20
610;DHT22;292;48.800;9.216;2024-01-10T06:14:15;0.20;53.30
610;DHT22;292;48.800;9.216;2024-01-10T06:16:42;0.20;53.60
610;DHT22;292;48.800;9.216;2024-01-10T06:19:09;0.20;53.80
610;DHT22;292;48.800;9.216;2024-01-10T06:21:36;0.20;54.50
610;DHT22;292;48.800;9.216;2024-01-10T06:24:04;0.20;54.90
610;DHT22;292;48.800;9.216;2024-01-10T06:26:33;0.20;55.20
610;DHT22;292;48.800;9.216;2024-01-10T06:29:00;0.20;55.30
610;DHT22;292;48.800;9.216;2024-01-10T06:31:27;0.20;55.40
610;DHT22;292;48.800;9.216;2024-01-10T06:33:54;0.20;55.40
610;DHT22;292;48.800;9.216;2024-01-10T06:36:22;0.20;55.20
610;DHT22;292;48.800;9.216;2024-01-10T06:38:48;0.20;55.00
610;DHT22;292;48.800;9.216;2024-01-10T06:41:16;0.20;55.00
610;DHT22;292;48.800;9.216;2024-01-10T06:43:44;0.10;55.20
610;DHT22;292;48.800;9.216;2024-01-10T06:46:12;0.10;55.20
610;DHT22;292;48.800;9.216;2024-01-10T06:48:39;0.10;55.00
610;DHT22;292;48.800;9.216;2024-01-10T06:51:10;0.10;55.40
610;DHT22;292;48.800;9.216;2024-01-10T06:53:38;0.10;55.80
610;DHT22;292;48.800;9.216;2024-01-10T06:56:06;0.10;55.60
610;DHT22;292;48.800;9.216;2024-01-10T06:58:35;0.10;55.60
610;DHT22;292;48.800;9.216;2024-01-10T07:01:03;0.10;55.80
610;DHT22;292;48.800;9.216;2024-01-10T07:03:31;0.10;56.00
610;DHT22;292;48.800;9.216;2024-01-10T07:06:00;0.10;56.10
610;DHT22;292;48.800;9.216;2024-01-10T07:08:27;0.10;56.20
610;DHT22;292;48.800;9.216;2024-01-10T07:10:56;0.10;56.40
610;DHT22;292;48.800;9.216;2024-01-10T07:13:25;0.10;56.20
610;DHT22;292;48.800;9.216;2024-01-10T07:15:52;0.10;56.40
610;DHT22;292;48.800;9.216;2024-01-10T07:18:20;0.10;56.50
610;DHT22;292;48.800;9.216;2024-01-10T07:20:47;0.10;56.90
610;DHT22;292;48.800;9.216;2024-01-10T07:23:15;0.10;57.00
610;DHT22;292;48.800;9.216;2024-01-10T07:25:42;0.10;57.20
610;DHT22;292;48.800;9.216;2024-01-10T07:28:09;0.10;57.20
610;DHT22;292;48.800;9.216;2024-01-10T07:30:37;0.10;57.20
610;DHT22;292;48.800;9.216;2024-01-10T07:33:04;0.10;57.00
610;DHT22;292;48.800;9.216;2024-01-10T07:35:34;0.10;57.00
610;DHT22;292;48.800;9.216;2024-01-10T07:38:01;0.10;57.00
610;DHT22;292;48.800;9.216;2024-01-10T07:40:28;0.10;57.40
610;DHT22;292;48.800;9.216;2024-01-10T07:42:55;0.10;57.40
610;DHT22;292;48.800;9.216;2024-01-10T07:45:22;0.10;57.20
610;DHT22;292;48.800;9.216;2024-01-10T07:47:49;0.10;57.20
610;DHT22;292;48.800;9.216;2024-01-10T07:50:17;0.10;57.00
610;DHT22;292;48.800;9.216;2024-01-10T07:52:46;0.00;57.20
610;DHT22;292;48.800;9.216;2024-01-10T07:55:13;0.10;57.20
610;DHT22;292;48.800;9.216;2024-01-10T07:57:41;0.00;57.00
610;DHT22;292;48.800;9.216;2024-01-10T08:00:09;0.00;57.00
610;DHT22;292;48.800;9.216;2024-01-10T08:02:36;0.10;57.20
610;DHT22;292;48.800;9.216;2024-01-10T08:05:05;0.10;57.20
610;DHT22;292;48.800;9.216;2024-01-10T08:07:34;0.10;57.20
610;DHT22;292;48.800;9.216;2024-01-10T08:10:04;0.10;57.20
610;DHT22;292;48.800;9.216;2024-01-10T08:12:31;0.10;56.90
610;DHT22;292;48.800;9.216;2024-01-10T08:14:58;0.10;56.60
610;DHT22;292;48.800;9.216;2024-01-10T08:17:25;0.10;56.60
610;DHT22;292;48.800;9.216;2024-01-10T08:19:52;0.10;56.60
610;DHT22;292;48.800;9.216;2024-01-10T08:22:19;0.10;56.50
610;DHT22;292;48.800;9.216;2024-01-10T08:24:47;0.20;56.40
610;DHT22;292;48.800;9.216;2024-01-10T08:27:16;0.20;56.40
610;DHT22;292;48.800;9.216;2024-01-10T08:29:43;0.20;56.20
610;DHT22;292;48.800;9.216;2024-01-10T08:32:10;0.20;56.10
610;DHT22;292;48.800;9.216;2024-01-10T08:34:38;0.20;56.00
610;DHT22;292;48.800;9.216;2024-01-10T08:37:05;0.20;55.80
610;DHT22;292;48.800;9.216;2024-01-10T08:39:32;0.30;55.80
610;DHT22;292;48.800;9.216;2024-01-10T08:41:58;0.30;55.70
610;DHT22;292;48.800;9.216;2024-01-10T08:44:27;0.30;55.70
610;DHT22;292;48.800;9.216;2024-01-10T08:46:54;0.40;55.70
610;DHT22;292;48.800;9.216;2024-01-10T08:49:21;0.40;55.40
610;DHT22;292;48.800;9.216;2024-01-10T08:51:48;0.50;55.30
610;DHT22;292;48.800;9.216;2024-01-10T08:54:15;0.60;55.00
610;DHT22;292;48.800;9.216;2024-01-10T08:56:46;0.60;54.80
610;DHT22;292;48.800;9.216;2024-01-10T08:59:14;0.60;54.40
610;DHT22;292;48.800;9.216;2024-01-10T09:01:43;0.60;54.20
610;DHT22;292;48.800;9.216;2024-01-10T09:04:09;0.70;54.20
610;DHT22;292;48.800;9.216;2024-01-10T09:06:36;0.70;54.20
610;DHT22;292;48.800;9.216;2024-01-10T09:09:04;0.70;54.20
610;DHT22;292;48.800;9.216;2024-01-10T09:11:32;0.80;54.20
610;DHT22;292;48.800;9.216;2024-01-10T09:13:59;0.90;54.20
610;DHT22;292;48.800;9.216;2024-01-10T09:16:26;0.90;54.10
610;DHT22;292;48.800;9.216;2024-01-10T09:18:55;1.00;53.80
610;DHT22;292;48.800;9.216;2024-01-10T09:21:22;1.00;54.00
610;DHT22;292;48.800;9.216;2024-01-10T09:23:50;1.10;53.80
610;DHT22;292;48.800;9.216;2024-01-10T09:26:17;1.20;54.00
610;DHT22;292;48.800;9.216;2024-01-10T09:28:44;1.40;53.70
610;DHT22;292;48.800;9.216;2024-01-10T09:31:11;1.50;53.70
610;DHT22;292;48.800;9.216;2024-01-10T09:33:38;1.60;53.30
610;DHT22;292;48.800;9.216;2024-01-10T09:36:07;1.80;53.00
610;DHT22;292;48.800;9.216;2024-01-10T09:38:37;1.90;52.80
610;DHT22;292;48.800;9.216;2024-01-10T09:41:04;2.10;52.20
610;DHT22;292;48.800;9.216;2024-01-10T09:43:32;2.20;51.60
610;DHT22;292;48.800;9.216;2024-01-10T09:46:01;2.30;51.40
610;DHT22;292;48.800;9.216;2024-01-10T09:48:29;2.50;51.20
610;DHT22;292;48.800;9.216;2024-01-10T09:50:57;2.80;50.80
610;DHT22;292;48.800;9.216;2024-01-10T09:53:26;3.00;50.50
610;DHT22;292;48.800;9.216;2024-01-10T09:55:53;3.20;49.60
610;DHT22;292;48.800;9.216;2024-01-10T09:58:23;3.30;49.40
610;DHT22;292;48.800;9.216;2024-01-10T10:00:52;3.50;49.60
610;DHT22;292;48.800;9.216;2024-01-10T10:03:19;3.70;49.40
610;DHT22;292;48.800;9.216;2024-01-10T10:05:46;4.00;49.00
610;DHT22;292;48.800;9.216;2024-01-10T10:08:14;4.10;48.40
610;DHT22;292;48.800;9.216;2024-01-10T10:10:50;4.20;48.00
610;DHT22;292;48.800;9.216;2024-01-10T10:13:27;4.20;47.60
610;DHT22;292;48.800;9.216;2024-01-10T10:15:59;4.20;47.60
610;DHT22;292;48.800;9.216;2024-01-10T10:18:26;4.10;47.70
610;DHT22;292;48.800;9.216;2024-01-10T10:21:07;4.10;47.60
610;DHT22;292;48.800;9.216;2024-01-10T10:23:34;4.10;47.60
610;DHT22;292;48.800;9.216;2024-01-10T10:26:12;4.10;47.40
610;DHT22;292;48.800;9.216;2024-01-10T10:28:45;4.20;47.60
610;DHT22;292;48.800;9.216;2024-01-10T10:31:12;4.20;47.60
610;DHT22;292;48.800;9.216;2024-01-10T10:33:39;4.30;47.60
610;DHT22;292;48.800;9.216;2024-01-10T10:36:07;4.40;47.20
610;DHT22;292;48.800;9.216;2024-01-10T10:38:34;4.50;47.00
610;DHT22;292;48.800;9.216;2024-01-10T10:41:05;4.50;46.80
610;DHT22;292;48.800;9.216;2024-01-10T10:43:38;4.60;46.60
610;DHT22;292;48.800;9.216;2024-01-10T10:46:07;4.80;46.60
610;DHT22;292;48.800;9.216;2024-01-10T10:48:35;4.80;46.40
610;DHT22;292;48.800;9.216;2024-01-10T10:51:05;4.90;46.20
610;DHT22;292;48.800;9.216;2024-01-10T10:53:33;5.00;46.10
610;DHT22;292;48.800;9.216;2024-01-10T10:56:03;5.10;46.00
610;DHT22;292;48.800;9.216;2024-01-10T10:58:34;5.10;45.60
610;DHT22;292;48.800;9.216;2024-01-10T11:01:05;5.10;45.60
610;DHT22;292;48.800;9.216;2024-01-10T11:03:35;5.10;45.40
610;DHT22;292;48.800;9.216;2024-01-10T11:06:04;5.10;45.40
610;DHT22;292;48.800;9.216;2024-01-10T11:08:35;5.20;45.60
610;DHT22;292;48.800;9.216;2024-01-10T11:11:05;5.30;45.60
610;DHT22;292;48.800;9.216;2024-01-10T11:13:56;5.40;45.00
610;DHT22;292;48.800;9.216;2024-01-10T11:16:41;5.50;44.90
610;DHT22;292;48.800;9.216;2024-01-10T11:22:32;5.60;44.90
610;DHT22;292;48.800;9.216;2024-01-10T11:25:03;5.70;44.60
610;DHT22;292;48.800;9.216;2024-01-10T11:27:30;5.80;44.40
610;DHT22;292;48.800;9.216;2024-01-10T11:29:57;5.80;44.20
610;DHT22;292;48.800;9.216;2024-01-10T11:32:27;5.90;44.20
610;DHT22;292;48.800;9.216;2024-01-10T11:34:55;6.00;44.00
610;DHT22;292;48.800;9.216;2024-01-10T11:37:28;6.00;43.80
610;DHT22;292;48.800;9.216;2024-01-10T11:39:55;6.10;43.80
610;DHT22;292;48.800;9.216;2024-01-10T11:42:23;6.30;44.00
610;DHT22;292;48.800;9.216;2024-01-10T11:44:51;6.40;43.80
610;DHT22;292;48.800;9.216;2024-01-10T11:47:17;6.50;43.60
610;DHT22;292;48.800;9.216;2024-01-10T11:49:57;6.60;43.30
610;DHT22;292;48.800;9.216;2024-01-10T11:52:32;6.70;43.00
610;DHT22;292;48.800;9.216;2024-01-10T11:55:00;6.70;42.80
610;DHT22;292;48.800;9.216;2024-01-10T11:57:28;6.70;42.50
610;DHT22;292;48.800;9.216;2024-01-10T11:59:58;6.70;42.80
610;DHT22;292;48.800;9.216;2024-01-10T12:02:26;6.70;42.80
610;DHT22;292;48.800;9.216;2024-01-10T12:04:53;6.70;42.50
610;DHT22;292;48.800;9.216;2024-01-10T12:07:22;6.70;42.10
610;DHT22;292;48.800;9.216;2024-01-10T12:09:51;6.70;42.00
610;DHT22;292;48.800;9.216;2024-01-10T12:12:18;6.60;42.00
610;DHT22;292;48.800;9.216;2024-01-10T12:14:46;6.60;42.40
610;DHT22;292;48.800;9.216;2024-01-10T12:17:13;6.60;42.40
610;DHT22;292;48.800;9.216;2024-01-10T12:19:40;6.60;42.40
610;DHT22;292;48.800;9.216;2024-01-10T12:22:10;6.60;42.50
610;DHT22;292;48.800;9.216;2024-01-10T12:24:43;6.70;42.60
610;DHT22;292;48.800;9.216;2024-01-10T12:27:11;6.70;42.50
610;DHT22;292;48.800;9.216;2024-01-10T12:29:40;6.80;42.50
610;DHT22;292;48.800;9.216;2024-01-10T12:32:08;6.80;42.20
610;DHT22;292;48.800;9.216;2024-01-10T12:34:38;6.80;42.20
610;DHT22;292;48.800;9.216;2024-01-10T12:37:05;6.90;42.40
610;DHT22;292;48.800;9.216;2024-01-10T12:39:32;6.90;42.20
610;DHT22;292;48.800;9.216;2024-01-10T12:42:04;6.80;42.20
610;DHT22;292;48.800;9.216;2024-01-10T12:44:31;6.80;42.20
610;DHT22;292;48.800;9.216;2024-01-10T12:46:58;6.90;42.20
610;DHT22;292;48.800;9.216;2024-01-10T12:49:25;6.90;42.00
610;DHT22;292;48.800;9.216;2024-01-10T12:51:53;6.80;42.20
610;DHT22;292;48.800;9.216;2024-01-10T12:54:22;6.90;42.20
610;DHT22;292;48.800;9.216;2024-01-10T12:56:49;6.90;42.10
610;DHT22;292;48.800;9.216;2024-01-10T12:59:20;6.80;42.20
610;DHT22;292;48.800;9.216;2024-01-10T13:01:47;6.80;42.20
610;DHT22;292;48.800;9.216;2024-01-10T13:04:14;6.70;42.40
610;DHT22;292;48.800;9.216;2024-01-10T13:06:41;6.70;42.80
610;DHT22;292;48.800;9.216;2024-01-10T13:09:08;6.70;42.50
610;DHT22;292;48.800;9.216;2024-01-10T13:11:37;6.70;42.50
610;DHT22;292;48.800;9.216;2024-01-10T13:14:05;6.70;42.60
610;DHT22;292;48.800;9.216;2024-01-10T13:16:34;6.70;42.80
610;DHT22;292;48.800;9.216;2024-01-10T13:19:01;6.70;42.80
610;DHT22;292;48.800;9.216;2024-01-10T13:21:28;6.70;42.80
610;DHT22;292;48.800;9.216;2024-01-10T13:23:55;6.70;42.80
610;DHT22;292;48.800;9.216;2024-01-10T13:26:22;6.70;42.80
610;DHT22;292;48.800;9.216;2024-01-10T13:28:49;6.80;42.80
610;DHT22;292;48.800;9.216;2024-01-10T13:31:18;6.90;42.60
610;DHT22;292;48.800;9.216;2024-01-10T13:33:46;6.90;42.60
610;DHT22;292;48.800;9.216;2024-01-10T13:36:16;6.90;42.60
610;DHT22;292;48.800;9.216;2024-01-10T13:38:43;6.90;42.80
610;DHT22;292;48.800;9.216;2024-01-10T13:41:10;6.90;42.80
610;DHT22;292;48.800;9.216;2024-01-10T13:43:37;6.90;42.80
610;DHT22;292;48.800;9.216;2024-01-10T13:46:05;7.00;42.80
610;DHT22;292;48.800;9.216;2024-01-10T13:48:32;7.00;42.90
610;DHT22;292;48.800;9.216;2024-01-10T13:51:01;7.10;42.60
610;DHT22;292;48.800;9.216;2024-01-10T13:53:28;7.00;42.40
610;DHT22;292;48.800;9.216;2024-01-10T13:55:55;7.00;42.60
610;DHT22;292;48.800;9.216;2024-01-10T13:58:22;7.00;42.50
610;DHT22;292;48.800;9.216;2024-01-10T14:00:50;6.90;42.40
610;DHT22;292;48.800;9.216;2024-01-10T14:03:17;6.90;42.50
610;DHT22;292;48.800;9.216;2024-01-10T14:05:44;6.90;42.50
610;DHT22;292;48.800;9.216;2024-01-10T14:08:12;6.80;42.40
610;DHT22;292;48.800;9.216;2024-01-10T14:10:41;6.80;42.40
610;DHT22;292;48.800;9.216;2024-01-10T14:13:08;6.70;42.50
610;DHT22;292;48.800;9.216;2024-01-10T14:15:35;6.60;42.50
610;DHT22;292;48.800;9.216;2024-01-10T14:18:03;6.40;42.40
610;DHT22;292;48.800;9.216;2024-01-10T14:20:30;6.30;42.60
610;DHT22;292;48.800;9.216;2024-01-10T14:22:59;6.30;42.60
610;DHT22;292;48.800;9.216;2024-01-10T14:25:27;6.20;42.90
610;DHT22;292;48.800;9.216;2024-01-10T14:27:55;6.10;43.00
610;DHT22;292;48.800;9.216;2024-01-10T14:30:24;6.00;43.20
610;DHT22;292;48.800;9.216;2024-01-10T14:32:52;5.90;43.30
610;DHT22;292;48.800;9.216;2024-01-10T14:35:20;5.80;43.60
610;DHT22;292;48.800;9.216;2024-01-10T14:37:47;5.70;43.60
610;DHT22;292;48.800;9.216;2024-01-10T14:40:14;5.60;43.70
610;DHT22;292;48.800;9.216;2024-01-10T14:42:43;5.50;43.80
610;DHT22;292;48.800;9.216;2024-01-10T14:45:11;5.40;44.10
610;DHT22;292;48.800;9.216;2024-01-10T14:47:38;5.30;44.20
610;DHT22;292;48.800;9.216;2024-01-10T14:50:06;5.20;44.40
610;DHT22;292;48.800;9.216;2024-01-10T14:52:33;5.20;44.80
610;DHT22;292;48.800;9.216;2024-01-10T14:55:00;5.10;44.90
610;DHT22;292;48.800;9.216;2024-01-10T14:57:30;5.10;45.00
610;DHT22;292;48.800;9.216;2024-01-10T15:00:00;5.00;45.20
610;DHT22;292;48.800;9.216;2024-01-10T15:02:27;4.90;45.30
610;DHT22;292;48.800;9.216;2024-01-10T15:04:54;4.90;45.40
610;DHT22;292;48.800;9.216;2024-01-10T15:07:21;4.90;45.60
610;DHT22;292;48.800;9.216;2024-01-10T15:09:48;4.80;45.70
610;DHT22;292;48.800;9.216;2024-01-10T15:12:16;4.70;46.10
610;DHT22;292;48.800;9.216;2024-01-10T15:14:42;4.70;46.20
610;DHT22;292;48.800;9.216;2024-01-10T15:17:13;4.60;46.20
610;DHT22;292;48.800;9.216;2024-01-10T15:19:40;4.60;46.50
610;DHT22;292;48.800;9.216;2024-01-10T15:22:07;4.50;46.60
610;DHT22;292;48.800;9.216;2024-01-10T15:24:34;4.50;46.80
610;DHT22;292;48.800;9.216;2024-01-10T15:27:01;4.40;46.90
610;DHT22;292;48.800;9.216;2024-01-10T15:29:36;4.40;47.00
610;DHT22;292;48.800;9.216;2024-01-10T15:32:04;4.40;47.00
610;DHT22;292;48.800;9.216;2024-01-10T15:34:33;4.30;47.20
610;DHT22;292;48.800;9.216;2024-01-10T15:37:00;4.30;47.30
610;DHT22;292;48.800;9.216;2024-01-10T15:39:27;4.20;47.60
610;DHT22;292;48.800;9.216;2024-01-10T15:41:54;4.20;47.70
610;DHT22;292;48.800;9.216;2024-01-10T15:44:21;4.10;47.80
610;DHT22;292;48.800;9.216;2024-01-10T15:46:48;4.10;48.00
610;DHT22;292;48.800;9.216;2024-01-10T15:49:15;4.00;48.20
610;DHT22;292;48.800;9.216;2024-01-10T15:51:43;4.00;48.20
610;DHT22;292;48.800;9.216;2024-01-10T15:54:10;4.00;48.40
610;DHT22;292;48.800;9.216;2024-01-10T15:56:38;3.90;48.50
610;DHT22;292;48.800;9.216;2024-01-10T15:59:06;3.90;48.60
610;DHT22;292;48.800;9.216;2024-01-10T16:01:33;3.90;48.80
610;DHT22;292;48.800;9.216;2024-01-10T16:04:01;3.80;49.00
610;DHT22;292;48.800;9.216;2024-01-10T16:06:28;3.80;49.00
610;DHT22;292;48.800;9.216;2024-01-10T16:08:56;3.80;49.20
610;DHT22;292;48.800;9.216;2024-01-10T16:11:23;3.80;49.40
610;DHT22;292;48.800;9.216;2024-01-10T16:13:50;3.70;49.60
610;DHT22;292;48.800;9.216;2024-01-10T16:16:21;3.70;49.70
610;DHT22;292;48.800;9.216;2024-01-10T16:18:48;3.70;49.70
610;DHT22;292;48.800;9.216;2024-01-10T16:21:15;3.70;49.80
610;DHT22;292;48.800;9.216;2024-01-10T16:23:42;3.60;49.80
610;DHT22;292;48.800;9.216;2024-01-10T16:26:11;3.60;50.00
610;DHT22;292;48.800;9.216;2024-01-10T16:28:38;3.60;50.10
610;DHT22;292;48.800;9.216;2024-01-10T16:31:05;3.50;50.10
610;DHT22;292;48.800;9.216;2024-01-10T16:33:32;3.50;50.20
610;DHT22;292;48.800;9.216;2024-01-10T16:35:59;3.50;50.40
610;DHT22;292;48.800;9.216;2024-01-10T16:38:27;3.50;50.50
610;DHT22;292;48.800;9.216;2024-01-10T16:40:54;3.50;50.60
610;DHT22;292;48.800;9.216;2024-01-10T16:43:23;3.50;50.60
610;DHT22;292;48.800;9.216;2024-01-10T16:45:52;3.40;50.80
610;DHT22;292;48.800;9.216;2024-01-10T16:48:19;3.40;51.20
610;DHT22;292;48.800;9.216;2024-01-10T16:50:47;3.40;51.30
610;DHT22;292;48.800;9.216;2024-01-10T16:53:14;3.40;51.60
610;DHT22;292;48.800;9.216;2024-01-10T16:55:41;3.50;51.70